createdAt,value
2019-01-19T00:00:49.170Z,101314.06
2019-01-19T00:03:53.994Z,101309.22
2019-01-19T00:06:34.458Z,101305.79
2019-01-19T00:09:14.918Z,101303.61
2019-01-19T00:11:55.309Z,101308.76
2019-01-19T00:14:24.892Z,101306.58
2019-01-19T00:17:05.021Z,101298.45
2019-01-19T00:20:09.781Z,101303.67
2019-01-19T00:22:41.252Z,101294.20
2019-01-19T00:25:38.337Z,101291.13
2019-01-19T00:28:18.352Z,101289.81
2019-01-19T00:30:52.425Z,101291.95
2019-01-19T00:33:50.633Z,101297.17
2019-01-19T00:36:25.035Z,101290.64
2019-01-19T00:39:08.405Z,101294.05
2019-01-19T00:42:08.581Z,101288.84
2019-01-19T00:44:45.827Z,101294.45
2019-01-19T00:47:20.130Z,101293.09
2019-01-19T00:49:51.716Z,101289.23
2019-01-19T00:52:26.080Z,101289.66
2019-01-19T00:55:18.905Z,101288.38
2019-01-19T00:57:52.972Z,101285.34
2019-01-19T01:00:33.335Z,101290.03
2019-01-19T01:03:19.421Z,101290.03
2019-01-19T01:05:56.850Z,101285.28
2019-01-19T01:08:43.418Z,101289.14
2019-01-19T01:11:17.867Z,101286.54
2019-01-19T01:14:07.404Z,101280.87
2019-01-19T01:16:52.141Z,101278.69
2019-01-19T01:19:45.056Z,101278.20
2019-01-19T01:22:29.386Z,101284.20
2019-01-19T01:25:01.045Z,101288.50
2019-01-19T01:27:38.422Z,101280.78
2019-01-19T01:30:15.890Z,101280.72
2019-01-19T01:32:53.415Z,101276.39
2019-01-19T01:35:36.991Z,101275.50
2019-01-19T01:38:23.849Z,101272.44
2019-01-19T01:41:11.878Z,101276.70
2019-01-19T01:43:43.371Z,101275.84
2019-01-19T01:46:46.635Z,101274.49
2019-01-19T01:49:30.408Z,101273.66
2019-01-19T01:52:13.620Z,101274.95
2019-01-19T01:54:54.114Z,101271.86
2019-01-19T01:57:24.974Z,101264.56
2019-01-19T01:59:59.008Z,101256.78
2019-01-19T02:02:36.438Z,101258.00
2019-01-19T02:05:27.835Z,101260.18
2019-01-19T02:08:08.276Z,101258.83
2019-01-19T02:10:56.487Z,101258.44
2019-01-19T02:13:36.784Z,101260.55
2019-01-19T02:16:23.461Z,101254.05
2019-01-19T02:19:15.874Z,101255.77
2019-01-19T02:21:49.945Z,101251.45
2019-01-19T02:24:55.074Z,101246.61
2019-01-19T02:27:32.423Z,101251.33
2019-01-19T02:30:12.548Z,101244.80
2019-01-19T02:32:50.012Z,101242.66
2019-01-19T02:35:30.072Z,101243.94
2019-01-19T02:38:04.323Z,101238.80
2019-01-19T02:40:39.165Z,101242.69
2019-01-19T02:43:10.678Z,101240.08
2019-01-19T02:45:50.838Z,101235.27
2019-01-19T02:48:22.338Z,101236.55
2019-01-19T02:50:59.763Z,101233.52
2019-01-19T02:53:31.326Z,101227.45
2019-01-19T02:56:02.829Z,101227.00
2019-01-19T02:58:34.329Z,101225.64
2019-01-19T03:01:05.852Z,101223.05
2019-01-19T03:03:43.019Z,101221.23
2019-01-19T03:06:17.520Z,101213.89
2019-01-19T03:08:49.010Z,101213.42
2019-01-19T03:11:35.612Z,101208.22
2019-01-19T03:14:15.932Z,101210.39
2019-01-19T03:16:50.323Z,101209.05
2019-01-19T03:19:36.937Z,101207.70
2019-01-19T03:22:26.930Z,101215.41
2019-01-19T03:25:18.105Z,101209.34
2019-01-19T03:28:10.878Z,101208.03
2019-01-19T03:31:01.857Z,101204.94
2019-01-19T03:33:45.088Z,101205.70
2019-01-19T03:36:25.692Z,101202.20
2019-01-19T03:39:09.407Z,101199.23
2019-01-19T03:41:44.774Z,101200.92
2019-01-19T03:44:34.507Z,101202.11
2019-01-19T03:47:14.809Z,101201.69
2019-01-19T03:50:07.215Z,101201.22
2019-01-19T03:52:38.726Z,101202.42
2019-01-19T03:55:10.244Z,101203.64
2019-01-19T03:57:59.956Z,101201.12
2019-01-19T04:00:40.253Z,101197.73
2019-01-19T04:03:23.795Z,101198.19
2019-01-19T04:06:29.946Z,101193.02
2019-01-19T04:09:21.193Z,101197.34
2019-01-19T04:12:01.500Z,101195.53
2019-01-19T04:14:54.212Z,101200.61
2019-01-19T04:17:31.543Z,101191.12
2019-01-19T04:20:19.838Z,101198.70
2019-01-19T04:22:48.253Z,101196.59
2019-01-19T04:25:19.716Z,101189.67
2019-01-19T04:27:48.159Z,101185.75
2019-01-19T04:30:16.689Z,101187.92
2019-01-19T04:32:45.108Z,101187.47
2019-01-19T04:35:13.608Z,101179.25
2019-01-19T04:37:42.066Z,101181.37
2019-01-19T04:40:12.517Z,101184.40
2019-01-19T04:42:42.888Z,101177.51
2019-01-19T04:45:11.750Z,101169.34
2019-01-19T04:47:40.211Z,101165.91
2019-01-19T04:50:10.683Z,101168.48
2019-01-19T04:52:39.140Z,101171.42
2019-01-19T04:55:08.101Z,101167.13
2019-01-19T04:57:36.625Z,101174.84
2019-01-19T05:00:08.105Z,101168.84
2019-01-19T05:02:36.823Z,101172.20
2019-01-19T05:05:06.279Z,101171.75
2019-01-19T05:07:34.956Z,101161.00
2019-01-19T05:10:05.117Z,101153.66
2019-01-19T05:12:33.563Z,101160.09
2019-01-19T05:15:02.044Z,101151.09
2019-01-19T05:17:30.500Z,101147.69
2019-01-19T05:19:58.920Z,101147.66
2019-01-19T05:22:27.391Z,101145.42
2019-01-19T05:24:57.374Z,101138.08
2019-01-19T05:27:25.829Z,101141.47
2019-01-19T05:29:54.285Z,101150.56
2019-01-19T05:32:22.939Z,101138.53
2019-01-19T05:34:51.762Z,101140.61
2019-01-19T05:37:20.177Z,101143.58
2019-01-19T05:39:48.628Z,101137.16
2019-01-19T05:42:17.068Z,101142.36
2019-01-19T05:44:45.511Z,101138.50
2019-01-19T05:47:13.931Z,101134.19
2019-01-19T05:49:42.367Z,101132.84
2019-01-19T05:52:10.862Z,101137.16
2019-01-19T05:54:39.297Z,101132.84
2019-01-19T05:57:07.720Z,101132.77
2019-01-19T05:59:36.291Z,101137.09
2019-01-19T06:02:04.949Z,101138.73
2019-01-19T06:04:33.408Z,101139.17
2019-01-19T06:07:01.832Z,101138.64
2019-01-19T06:09:30.286Z,101140.33
2019-01-19T06:11:58.782Z,101132.61
2019-01-19T06:14:27.201Z,101142.14
2019-01-19T06:16:55.647Z,101133.05
2019-01-19T06:19:27.254Z,101142.50
2019-01-19T06:21:57.069Z,101138.58
2019-01-19T06:24:25.566Z,101135.85
2019-01-19T06:26:54.009Z,101134.53
2019-01-19T06:29:22.934Z,101134.93
2019-01-19T06:31:51.556Z,101131.91
2019-01-19T06:34:19.979Z,101131.44
2019-01-19T06:36:54.865Z,101130.52
2019-01-19T06:39:18.707Z,101130.42
2019-01-19T06:41:47.268Z,101135.10
2019-01-19T06:44:15.699Z,101126.44
2019-01-19T06:46:44.203Z,101133.75
2019-01-19T06:49:12.625Z,101133.66
2019-01-19T06:51:41.259Z,101126.77
2019-01-19T06:54:10.084Z,101125.88
2019-01-19T06:56:38.571Z,101128.81
2019-01-19T06:59:07.011Z,101132.30
2019-01-19T07:01:35.602Z,101130.09
2019-01-19T07:04:04.219Z,101132.20
2019-01-19T07:06:32.631Z,101136.06
2019-01-19T07:09:01.075Z,101128.35
2019-01-19T07:11:30.382Z,101131.78
2019-01-19T07:13:59.148Z,101127.92
2019-01-19T07:16:27.621Z,101128.98
2019-01-19T07:18:56.065Z,101134.90
2019-01-19T07:21:27.614Z,101124.81
2019-01-19T07:23:56.051Z,101128.82
2019-01-19T07:26:24.464Z,101130.20
2019-01-19T07:28:52.995Z,101123.31
2019-01-19T07:31:21.490Z,101125.89
2019-01-19T07:33:49.943Z,101125.33
2019-01-19T07:36:18.383Z,101128.14
2019-01-19T07:38:46.931Z,101128.87
2019-01-19T07:41:15.346Z,101130.88
2019-01-19T07:43:44.001Z,101138.98
2019-01-19T07:46:12.769Z,101134.67
2019-01-19T07:48:41.265Z,101130.36
2019-01-19T07:51:11.439Z,101133.36
2019-01-19T07:53:40.121Z,101130.20
2019-01-19T07:56:08.590Z,101135.77
2019-01-19T07:58:37.041Z,101133.59
2019-01-19T08:01:05.537Z,101132.23
2019-01-19T08:03:34.086Z,101132.67
2019-01-19T08:06:02.553Z,101136.59
2019-01-19T08:08:30.997Z,101136.59
2019-01-19T08:10:59.461Z,101141.73
2019-01-19T08:13:27.946Z,101138.20
2019-01-19T08:15:56.390Z,101139.55
2019-01-19T08:18:24.808Z,101137.81
2019-01-19T08:20:53.356Z,101133.52
2019-01-19T08:23:21.755Z,101142.13
2019-01-19T08:25:50.667Z,101142.19
2019-01-19T08:28:19.084Z,101140.45
2019-01-19T08:30:47.662Z,101141.76
2019-01-19T08:33:16.169Z,101141.36
2019-01-19T08:35:45.398Z,101141.83
2019-01-19T08:38:13.821Z,101139.72
2019-01-19T08:40:42.359Z,101144.09
2019-01-19T08:43:18.607Z,101149.27
2019-01-19T08:45:47.228Z,101155.76
2019-01-19T08:48:16.020Z,101152.36
2019-01-19T08:50:44.476Z,101149.80
2019-01-19T08:53:12.864Z,101158.79
2019-01-19T08:55:41.300Z,101154.11
2019-01-19T08:58:09.804Z,101155.46
2019-01-19T09:00:38.295Z,101150.78
2019-01-19T09:03:06.756Z,101149.98
2019-01-19T09:05:35.165Z,101144.81
2019-01-19T09:08:03.704Z,101155.63
2019-01-19T09:10:32.187Z,101148.77
2019-01-19T09:13:00.665Z,101151.80
2019-01-19T09:15:29.297Z,101156.48
2019-01-19T09:17:57.822Z,101140.23
2019-01-19T09:20:26.314Z,101141.58
2019-01-19T09:22:59.368Z,101142.41
2019-01-19T09:25:27.850Z,101139.47
2019-01-19T09:27:56.426Z,101134.85
2019-01-19T09:30:25.390Z,101139.78
2019-01-19T09:32:54.030Z,101136.55
2019-01-19T09:35:22.542Z,101139.67
2019-01-19T09:37:51.144Z,101141.58
2019-01-19T09:40:19.820Z,101142.55
2019-01-19T09:42:48.427Z,101142.37
2019-01-19T09:45:19.085Z,101141.70
2019-01-19T09:47:47.849Z,101139.42
2019-01-19T09:50:21.264Z,101134.64
2019-01-19T09:52:49.980Z,101131.02
2019-01-19T09:55:18.532Z,101132.25
2019-01-19T09:57:47.319Z,101123.21
2019-01-19T10:00:24.431Z,101124.80
2019-01-19T10:02:52.903Z,101119.55
2019-01-19T10:05:24.429Z,101121.17
2019-01-19T10:07:53.034Z,101114.06
2019-01-19T10:10:21.635Z,101116.14
2019-01-19T10:12:50.128Z,101110.17
2019-01-19T10:15:21.014Z,101113.19
2019-01-19T10:17:49.607Z,101112.31
2019-01-19T10:20:20.882Z,101109.23
2019-01-19T10:22:49.435Z,101110.95
2019-01-19T10:25:18.099Z,101107.39
2019-01-19T10:27:46.851Z,101105.94
2019-01-19T10:30:17.947Z,101103.64
2019-01-19T10:32:46.667Z,101108.16
2019-01-19T10:35:15.881Z,101105.68
2019-01-19T10:37:44.601Z,101105.05
2019-01-19T10:40:17.856Z,101105.31
2019-01-19T10:42:46.548Z,101098.91
2019-01-19T10:45:17.505Z,101095.24
2019-01-19T10:47:46.086Z,101095.31
2019-01-19T10:50:20.429Z,101085.13
2019-01-19T10:52:49.190Z,101080.95
2019-01-19T10:55:22.811Z,101084.13
2019-01-19T10:57:51.503Z,101076.22
2019-01-19T11:00:28.491Z,101065.66
2019-01-19T11:02:57.887Z,101064.55
2019-01-19T11:05:26.521Z,101066.88
2019-01-19T11:07:55.428Z,101060.98
2019-01-19T11:10:29.798Z,101056.84
2019-01-19T11:12:58.490Z,101061.00
2019-01-19T11:15:27.161Z,101056.88
2019-01-19T11:17:55.970Z,101054.00
2019-01-19T11:20:26.798Z,101049.02
2019-01-19T11:22:56.278Z,101045.76
2019-01-19T11:25:24.842Z,101042.87
2019-01-19T11:27:53.437Z,101044.34
2019-01-19T11:30:26.993Z,101038.94
2019-01-19T11:32:55.593Z,101038.75
2019-01-19T11:35:24.141Z,101029.47
2019-01-19T11:37:52.752Z,101025.31
2019-01-19T11:40:30.030Z,101027.73
2019-01-19T11:42:58.538Z,101024.47
2019-01-19T11:45:27.194Z,101016.87
2019-01-19T11:47:55.764Z,101013.56
2019-01-19T11:50:24.312Z,101002.39
2019-01-19T11:52:52.961Z,101001.61
2019-01-19T11:55:21.614Z,100993.95
2019-01-19T11:57:52.510Z,100997.08
2019-01-19T12:00:26.362Z,100990.20
2019-01-19T12:02:55.387Z,100987.28
2019-01-19T12:05:24.811Z,100989.91
2019-01-19T12:07:53.309Z,100977.39
2019-01-19T12:10:23.887Z,100971.38
2019-01-19T12:12:52.312Z,100972.28
2019-01-19T12:15:20.902Z,100960.97
2019-01-19T12:17:49.450Z,100960.10
2019-01-19T12:20:41.308Z,100947.95
2019-01-19T12:23:10.115Z,100902.31
2019-01-19T12:25:38.664Z,100940.48
2019-01-19T12:28:07.235Z,100936.95
2019-01-19T12:30:36.200Z,100939.03
2019-01-19T12:33:05.535Z,100927.24
2019-01-19T12:35:34.141Z,100929.34
2019-01-19T12:38:03.205Z,100926.19
2019-01-19T12:40:31.786Z,100926.56
2019-01-19T12:43:06.059Z,100921.77
2019-01-19T12:45:39.575Z,100923.47
2019-01-19T12:48:08.002Z,100926.84
2019-01-19T12:50:36.590Z,100920.70
2019-01-19T12:53:05.262Z,100920.17
2019-01-19T12:55:33.854Z,100916.08
2019-01-19T12:58:02.338Z,100912.50
2019-01-19T13:00:33.759Z,100905.50
2019-01-19T13:03:02.419Z,100899.52
2019-01-19T13:05:43.809Z,100895.78
2019-01-19T13:08:15.676Z,100897.09
2019-01-19T13:10:47.192Z,100883.88
2019-01-19T13:13:15.848Z,100882.91
2019-01-19T13:15:50.581Z,100884.55
2019-01-19T13:18:39.949Z,100878.34
2019-01-19T13:21:37.526Z,100871.44
2019-01-19T13:24:14.946Z,100874.89
2019-01-19T13:27:01.547Z,100871.86
2019-01-19T13:29:33.114Z,100872.14
2019-01-19T13:32:22.507Z,100867.37
2019-01-19T13:35:02.815Z,100866.95
2019-01-19T13:37:37.460Z,100862.42
2019-01-19T13:40:31.405Z,100861.70
2019-01-19T13:43:21.061Z,100854.80
2019-01-19T13:45:52.531Z,100861.48
2019-01-19T13:48:27.128Z,100849.34
2019-01-19T13:51:19.196Z,100851.07
2019-01-19T13:54:02.734Z,100844.08
2019-01-19T13:56:49.112Z,100850.27
2019-01-19T13:59:23.447Z,100844.49
2019-01-19T14:02:17.584Z,100851.84
2019-01-19T14:05:04.184Z,100853.69
2019-01-19T14:07:47.706Z,100845.50
2019-01-19T14:10:19.195Z,100843.77
2019-01-19T14:12:59.705Z,100842.95
2019-01-19T14:15:31.211Z,100846.44
2019-01-19T14:18:08.593Z,100842.97
2019-01-19T14:20:52.156Z,100845.55
2019-01-19T14:23:39.126Z,100837.30
2019-01-19T14:26:26.938Z,100836.02
2019-01-19T14:28:58.505Z,100837.73
2019-01-19T14:31:58.558Z,100838.11
2019-01-19T14:34:48.381Z,100826.81
2019-01-19T14:37:48.259Z,100820.30
2019-01-19T14:40:22.592Z,100821.55
2019-01-19T14:42:56.749Z,100823.64
2019-01-19T14:45:31.288Z,100810.63
2019-01-19T14:48:11.640Z,100814.94
2019-01-19T14:50:49.196Z,100807.13
2019-01-19T14:53:35.731Z,100802.77
2019-01-19T14:56:10.319Z,100797.55
2019-01-19T14:58:44.443Z,100799.64
2019-01-19T15:01:18.431Z,100796.16
2019-01-19T15:04:09.702Z,100796.11
2019-01-19T15:06:44.044Z,100795.59
2019-01-19T15:09:27.319Z,100795.55
2019-01-19T15:12:04.602Z,100795.89
2019-01-19T15:14:41.869Z,100801.05
2019-01-19T15:17:16.274Z,100801.45
2019-01-19T15:19:59.924Z,100795.36
2019-01-19T15:22:46.403Z,100796.19
2019-01-19T15:25:23.790Z,100795.31
2019-01-19T15:28:13.424Z,100791.81
2019-01-19T15:30:57.046Z,100790.03
2019-01-19T15:33:37.476Z,100791.73
2019-01-19T15:36:08.966Z,100790.83
2019-01-19T15:38:40.493Z,100788.20
2019-01-19T15:41:21.050Z,100788.15
2019-01-19T15:44:13.978Z,100790.70
2019-01-19T15:47:02.917Z,100791.09
2019-01-19T15:49:50.629Z,100784.11
2019-01-19T15:52:27.930Z,100785.77
2019-01-19T15:55:05.291Z,100781.42
2019-01-19T15:57:45.477Z,100780.93
2019-01-19T16:00:24.689Z,100776.12
2019-01-19T16:03:14.397Z,100779.52
2019-01-19T16:05:58.018Z,100779.00
2019-01-19T16:08:49.249Z,100775.50
2019-01-19T16:11:26.754Z,100782.36
2019-01-19T16:14:14.901Z,100790.92
2019-01-19T16:16:58.161Z,100785.25
2019-01-19T16:19:47.859Z,100780.88
2019-01-19T16:22:25.363Z,100783.41
2019-01-19T16:25:15.045Z,100783.78
2019-01-19T16:27:55.242Z,100782.87
2019-01-19T16:30:41.514Z,100785.44
2019-01-19T16:33:21.598Z,100788.81
2019-01-19T16:35:58.784Z,100782.31
2019-01-19T16:38:45.315Z,100783.13
2019-01-19T16:41:35.131Z,100777.08
2019-01-19T16:44:27.974Z,100780.86
2019-01-19T16:47:25.194Z,100771.33
2019-01-19T16:50:14.535Z,100774.74
2019-01-19T16:52:46.028Z,100770.83
2019-01-19T16:55:32.561Z,100774.27
2019-01-19T16:58:07.281Z,100769.47
2019-01-19T17:00:58.508Z,100765.94
2019-01-19T17:03:39.685Z,100764.16
2019-01-19T17:06:14.152Z,100761.55
2019-01-19T17:09:09.698Z,100773.11
2019-01-19T17:11:59.144Z,100773.05
2019-01-19T17:14:33.566Z,100769.13
2019-01-19T17:17:11.108Z,100774.27
2019-01-19T17:19:57.650Z,100776.37
2019-01-19T17:22:40.391Z,100774.60
2019-01-19T17:25:14.655Z,100774.97
2019-01-19T17:27:57.737Z,100768.91
2019-01-19T17:30:35.135Z,100765.82
2019-01-19T17:33:21.957Z,100765.38
2019-01-19T17:36:02.323Z,100773.94
2019-01-19T17:38:36.586Z,100767.88
2019-01-19T17:41:32.151Z,100767.33
2019-01-19T17:44:15.969Z,100767.73
2019-01-19T17:46:58.816Z,100773.30
2019-01-19T17:49:33.117Z,100774.16
2019-01-19T17:52:07.455Z,100768.95
2019-01-19T17:54:50.992Z,100763.74
2019-01-19T17:57:42.072Z,100767.58
2019-01-19T18:00:13.850Z,100770.52
2019-01-19T18:03:06.864Z,100771.78
2019-01-19T18:05:41.362Z,100776.05
2019-01-19T18:08:22.011Z,100776.86
2019-01-19T18:11:09.953Z,100779.00
2019-01-19T18:13:50.451Z,100787.11
2019-01-19T18:16:41.576Z,100778.43
2019-01-19T18:19:16.059Z,100776.70
2019-01-19T18:22:03.954Z,100774.44
2019-01-19T18:24:50.523Z,100774.39
2019-01-19T18:27:41.440Z,100777.82
2019-01-19T18:30:41.891Z,100776.94
2019-01-19T18:33:25.568Z,100774.31
2019-01-19T18:36:02.865Z,100775.11
2019-01-19T18:38:55.314Z,100775.95
2019-01-19T18:41:29.882Z,100770.30
2019-01-19T18:44:13.209Z,100772.41
2019-01-19T18:46:53.619Z,100769.81
2019-01-19T18:49:36.919Z,100772.77
2019-01-19T18:52:25.243Z,100771.86
2019-01-19T18:55:02.395Z,100767.02
2019-01-19T18:57:45.895Z,100769.59
2019-01-19T19:00:26.479Z,100774.22
2019-01-19T19:03:12.979Z,100766.84
2019-01-19T19:05:58.959Z,100771.95
2019-01-19T19:08:47.013Z,100765.95
2019-01-19T19:11:40.879Z,100771.45
2019-01-19T19:14:27.185Z,100771.81
2019-01-19T19:17:16.011Z,100771.77
2019-01-19T19:19:51.043Z,100767.41
2019-01-19T19:22:44.723Z,100773.81
2019-01-19T19:25:25.556Z,100777.62
2019-01-19T19:28:15.008Z,100767.71
2019-01-19T19:31:04.833Z,100768.50
2019-01-19T19:33:36.358Z,100769.69
2019-01-19T19:36:10.612Z,100771.38
2019-01-19T19:38:44.682Z,100774.76
2019-01-19T19:41:19.274Z,100773.03
2019-01-19T19:44:19.570Z,100782.05
2019-01-19T19:47:06.520Z,100784.19
2019-01-19T19:49:43.547Z,100777.23
2019-01-19T19:52:12.075Z,100775.45
2019-01-19T19:54:43.551Z,100776.73
2019-01-19T19:57:12.215Z,100773.67
2019-01-19T19:59:40.680Z,100776.15
2019-01-19T20:02:09.307Z,100784.27
2019-01-19T20:04:37.782Z,100784.62
2019-01-19T20:07:06.612Z,100785.06
2019-01-19T20:09:35.324Z,100785.41
2019-01-19T20:12:06.401Z,100788.38
2019-01-19T20:14:35.170Z,100781.88
2019-01-19T20:17:03.810Z,100784.86
2019-01-19T20:19:32.368Z,100789.97
2019-01-19T20:22:00.805Z,100789.52
2019-01-19T20:24:29.375Z,100789.52
2019-01-19T20:26:57.987Z,100786.48
2019-01-19T20:29:26.397Z,100786.45
2019-01-19T20:31:54.840Z,100796.75
2019-01-19T20:34:23.317Z,100788.56
2019-01-19T20:36:51.844Z,100787.62
2019-01-19T20:39:20.427Z,100791.48
2019-01-19T20:41:48.977Z,100786.72
2019-01-19T20:44:17.502Z,100785.78
2019-01-19T20:46:46.010Z,100788.75
2019-01-19T20:49:16.070Z,100795.14
2019-01-19T20:51:44.493Z,100801.53
2019-01-19T20:54:13.104Z,100795.53
2019-01-19T20:56:41.621Z,100797.61
2019-01-19T20:59:10.273Z,100795.42
2019-01-19T21:01:38.743Z,100790.66
2019-01-19T21:04:07.261Z,100797.05
2019-01-19T21:06:35.837Z,100798.27
2019-01-19T21:09:09.663Z,100803.83
2019-01-19T21:11:38.237Z,100802.91
2019-01-19T21:14:06.834Z,100807.13
2019-01-19T21:16:35.341Z,100806.69
2019-01-19T21:19:03.946Z,100804.49
2019-01-19T21:21:32.377Z,100810.08
2019-01-19T21:24:00.785Z,100821.23
2019-01-19T21:26:29.347Z,100818.64
2019-01-19T21:28:57.778Z,100813.89
2019-01-19T21:31:32.208Z,100817.81
2019-01-19T21:34:00.731Z,100810.42
2019-01-19T21:36:29.182Z,100815.12
2019-01-19T21:38:57.594Z,100813.73
2019-01-19T21:41:26.035Z,100812.00
2019-01-19T21:43:54.450Z,100811.08
2019-01-19T21:46:22.908Z,100814.00
2019-01-19T21:48:51.323Z,100815.34
2019-01-19T21:51:19.795Z,100811.03
2019-01-19T21:53:48.286Z,100808.79
2019-01-19T21:56:16.776Z,100808.72
2019-01-19T21:58:45.190Z,100808.29
2019-01-19T22:01:13.769Z,100809.95
2019-01-19T22:03:42.195Z,100807.38
2019-01-19T22:06:10.632Z,100807.27
2019-01-19T22:08:39.144Z,100805.08
2019-01-19T22:11:07.667Z,100812.36
2019-01-19T22:13:36.150Z,100812.79
2019-01-19T22:16:04.684Z,100811.45
2019-01-19T22:18:33.153Z,100817.00
2019-01-19T22:21:01.653Z,100818.27
2019-01-19T22:23:30.174Z,100816.09
2019-01-19T22:25:58.657Z,100817.37
2019-01-19T22:28:27.140Z,100818.16
2019-01-19T22:30:55.534Z,100816.36
2019-01-19T22:33:24.540Z,100821.49
2019-01-19T22:35:52.984Z,100815.84
2019-01-19T22:38:21.534Z,100814.17
2019-01-19T22:40:53.655Z,100816.30
2019-01-19T22:43:20.251Z,100811.53
2019-01-19T22:45:48.759Z,100816.17
2019-01-19T22:48:17.271Z,100815.67
2019-01-19T22:50:45.757Z,100813.53
2019-01-19T22:53:14.318Z,100810.91
2019-01-19T22:55:42.821Z,100808.27
2019-01-19T22:58:11.279Z,100807.36
2019-01-19T23:00:59.339Z,100810.31
2019-01-19T23:03:29.978Z,100811.11
2019-01-19T23:05:58.561Z,100807.25
2019-01-19T23:08:26.995Z,100817.92
2019-01-19T23:11:01.102Z,100814.88
2019-01-19T23:13:25.663Z,100811.92
2019-01-19T23:15:54.112Z,100818.36
2019-01-19T23:18:22.636Z,100819.98
2019-01-19T23:20:51.170Z,100822.55
2019-01-19T23:23:19.645Z,100820.83
2019-01-19T23:25:48.147Z,100819.07
2019-01-19T23:28:16.640Z,100819.40
2019-01-19T23:30:45.115Z,100815.54
2019-01-19T23:33:13.519Z,100816.77
2019-01-19T23:35:41.956Z,100817.66
2019-01-19T23:38:10.382Z,100822.38
2019-01-19T23:40:38.836Z,100815.94
2019-01-19T23:43:07.401Z,100812.91
2019-01-19T23:45:35.843Z,100814.63
2019-01-19T23:48:04.495Z,100818.06
2019-01-19T23:50:32.935Z,100818.49
2019-01-19T23:53:01.347Z,100820.23
2019-01-19T23:55:29.805Z,100820.61
2019-01-19T23:57:58.271Z,100818.88
